createdAt,value
2018-06-02T00:00:01.428Z,16.87
2018-06-02T00:00:05.428Z,16.87
2018-06-02T00:00:09.537Z,16.87
2018-06-02T00:00:13.858Z,16.87
2018-06-02T00:00:17.744Z,16.87
2018-06-02T00:00:21.853Z,16.87
2018-06-02T00:00:26.058Z,16.88
2018-06-02T00:00:30.156Z,16.87
2018-06-02T00:00:34.265Z,16.87
2018-06-02T00:00:38.581Z,16.87
2018-06-02T00:00:42.903Z,16.87
2018-06-02T00:00:47.232Z,16.87
2018-06-02T00:00:51.565Z,16.87
2018-06-02T00:00:55.884Z,16.87
2018-06-02T00:00:59.986Z,16.87
2018-06-02T00:01:03.975Z,16.88
2018-06-02T00:01:08.187Z,16.88
2018-06-02T00:01:12.398Z,16.88
2018-06-02T00:01:16.612Z,16.87
2018-06-02T00:01:20.724Z,16.87
2018-06-02T00:01:24.631Z,16.87
2018-06-02T00:01:28.839Z,16.87
2018-06-02T00:01:33.049Z,16.88
2018-06-02T00:01:37.258Z,16.87
2018-06-02T00:01:41.580Z,16.88
2018-06-02T00:01:45.793Z,16.88
2018-06-02T00:01:50.012Z,16.88
2018-06-02T00:01:54.017Z,16.88
2018-06-02T00:01:58.243Z,16.89
2018-06-02T00:02:02.460Z,16.89
2018-06-02T00:02:06.459Z,16.88
2018-06-02T00:02:10.792Z,16.88
2018-06-02T00:02:15.009Z,16.89
2018-06-02T00:02:19.219Z,16.89
2018-06-02T00:02:23.213Z,16.89
2018-06-02T00:02:27.540Z,16.88
2018-06-02T00:02:31.640Z,16.88
2018-06-02T00:02:35.852Z,16.89
2018-06-02T00:02:40.074Z,16.9
2018-06-02T00:02:44.397Z,16.9
2018-06-02T00:02:48.508Z,16.9
2018-06-02T00:02:52.831Z,16.89
2018-06-02T00:02:57.058Z,16.9
2018-06-02T00:03:01.284Z,16.89
2018-06-02T00:03:05.623Z,16.89
2018-06-02T00:03:09.834Z,16.89
2018-06-02T00:03:13.830Z,16.89
2018-06-02T00:03:18.047Z,16.9
2018-06-02T00:03:22.256Z,16.9
2018-06-02T00:03:26.477Z,16.9
2018-06-02T00:03:30.692Z,16.9
2018-06-02T00:03:34.794Z,16.89
2018-06-02T00:03:39.008Z,16.89
2018-06-02T00:03:43.112Z,16.89
2018-06-02T00:03:47.317Z,16.9
2018-06-02T00:03:51.532Z,16.9
2018-06-02T00:03:55.748Z,16.89
2018-06-02T00:04:00.075Z,16.89
2018-06-02T00:04:04.299Z,16.89
2018-06-02T00:04:08.636Z,16.88
2018-06-02T00:04:12.848Z,16.89
2018-06-02T00:04:17.176Z,16.89
2018-06-02T00:04:21.395Z,16.89
2018-06-02T00:04:25.392Z,16.89
2018-06-02T00:04:29.630Z,16.9
2018-06-02T00:04:33.954Z,16.9
2018-06-02T00:04:38.273Z,16.9
2018-06-02T00:04:42.591Z,16.9
2018-06-02T00:04:46.926Z,16.9
2018-06-02T00:04:51.141Z,16.9
2018-06-02T00:04:55.463Z,16.9
2018-06-02T00:04:59.460Z,16.9
2018-06-02T00:05:03.675Z,16.9
2018-06-02T00:05:07.995Z,16.9
2018-06-02T00:05:12.209Z,16.9
2018-06-02T00:05:16.419Z,16.9
2018-06-02T00:05:20.519Z,16.9
2018-06-02T00:05:24.624Z,16.9
2018-06-02T00:05:28.828Z,16.9
2018-06-02T00:05:33.038Z,16.9
2018-06-02T00:05:37.151Z,16.9
2018-06-02T00:05:41.477Z,16.9
2018-06-02T00:05:45.689Z,16.9
2018-06-02T00:05:49.942Z,16.9
2018-06-02T00:05:54.264Z,16.9
2018-06-02T00:05:58.585Z,16.9
2018-06-02T00:06:02.802Z,16.9
2018-06-02T00:06:06.904Z,16.89
2018-06-02T00:06:11.116Z,16.9
2018-06-02T00:06:15.440Z,16.89
2018-06-02T00:06:19.760Z,16.9
2018-06-02T00:06:23.982Z,16.9
2018-06-02T00:06:28.303Z,16.9
2018-06-02T00:06:32.514Z,16.89
2018-06-02T00:06:36.833Z,16.9
2018-06-02T00:06:41.148Z,16.89
2018-06-02T00:06:45.362Z,16.89
2018-06-02T00:06:49.577Z,16.9
2018-06-02T00:06:53.787Z,16.89
2018-06-02T00:06:58.113Z,16.89
2018-06-02T00:07:02.105Z,16.89
2018-06-02T00:07:06.365Z,16.9
2018-06-02T00:07:10.588Z,16.89
2018-06-02T00:07:14.919Z,16.89
2018-06-02T00:07:19.252Z,16.9
2018-06-02T00:07:23.481Z,16.9
2018-06-02T00:07:27.798Z,16.9
2018-06-02T00:07:32.009Z,16.9
2018-06-02T00:07:36.118Z,16.9
2018-06-02T00:07:40.329Z,16.88
2018-06-02T00:07:44.538Z,16.88
2018-06-02T00:07:48.865Z,16.9
2018-06-02T00:07:52.974Z,16.88
2018-06-02T00:07:57.190Z,16.9
2018-06-02T00:08:01.292Z,16.89
2018-06-02T00:08:05.391Z,16.9
2018-06-02T00:08:09.496Z,16.89
2018-06-02T00:08:13.817Z,16.9
2018-06-02T00:08:18.030Z,16.9
2018-06-02T00:08:22.239Z,16.89
2018-06-02T00:08:26.452Z,16.89
2018-06-02T00:08:30.657Z,16.89
2018-06-02T00:08:34.998Z,16.89
2018-06-02T00:08:39.100Z,16.9
2018-06-02T00:08:43.309Z,16.9
2018-06-02T00:08:47.515Z,16.89
2018-06-02T00:08:51.629Z,16.9
2018-06-02T00:08:55.625Z,16.9
2018-06-02T00:08:59.845Z,16.9
2018-06-02T00:09:03.948Z,16.89
2018-06-02T00:09:08.056Z,16.9
2018-06-02T00:09:12.310Z,16.9
2018-06-02T00:09:16.632Z,16.89
2018-06-02T00:09:20.949Z,16.9
2018-06-02T00:09:25.053Z,16.89
2018-06-02T00:09:29.287Z,16.9
2018-06-02T00:09:33.280Z,16.89
2018-06-02T00:09:37.520Z,16.9
2018-06-02T00:09:41.850Z,16.9
2018-06-02T00:09:46.178Z,16.89
2018-06-02T00:09:50.391Z,16.9
2018-06-02T00:09:54.601Z,16.89
2018-06-02T00:09:58.922Z,16.89
2018-06-02T00:10:03.143Z,16.88
2018-06-02T00:10:07.140Z,16.89
2018-06-02T00:10:11.347Z,16.89
2018-06-02T00:10:15.669Z,16.88
2018-06-02T00:10:19.931Z,16.89
2018-06-02T00:10:24.249Z,16.88
2018-06-02T00:10:28.568Z,16.88
2018-06-02T00:10:32.776Z,16.88
2018-06-02T00:10:36.986Z,16.88
2018-06-02T00:10:41.310Z,16.87
2018-06-02T00:10:45.525Z,16.87
2018-06-02T00:10:49.636Z,16.88
2018-06-02T00:10:53.739Z,16.87
2018-06-02T00:10:58.060Z,16.87
2018-06-02T00:11:02.497Z,16.88
2018-06-02T00:11:06.996Z,16.87
2018-06-02T00:11:11.403Z,16.87
2018-06-02T00:11:15.943Z,16.87
2018-06-02T00:11:20.403Z,16.87
2018-06-02T00:11:24.888Z,16.86
2018-06-02T00:11:29.116Z,16.87
2018-06-02T00:11:33.328Z,16.87
2018-06-02T00:11:37.434Z,16.87
2018-06-02T00:11:41.564Z,16.87
2018-06-02T00:11:45.783Z,16.86
2018-06-02T00:11:50.099Z,16.87
2018-06-02T00:11:54.327Z,16.86
2018-06-02T00:11:58.432Z,16.87
2018-06-02T00:12:02.638Z,16.87
2018-06-02T00:12:06.527Z,16.86
2018-06-02T00:12:10.627Z,16.87
2018-06-02T00:12:14.835Z,16.87
2018-06-02T00:12:19.153Z,16.86
2018-06-02T00:12:23.366Z,16.87
2018-06-02T00:12:27.682Z,16.86
2018-06-02T00:12:31.998Z,16.86
2018-06-02T00:12:36.312Z,16.85
2018-06-02T00:12:40.528Z,16.86
2018-06-02T00:12:44.860Z,16.86
2018-06-02T00:12:49.187Z,16.86
2018-06-02T00:12:53.508Z,16.86
2018-06-02T00:12:57.720Z,16.86
2018-06-02T00:13:02.054Z,16.86
2018-06-02T00:13:06.154Z,16.85
2018-06-02T00:13:10.368Z,16.86
2018-06-02T00:13:14.578Z,16.86
2018-06-02T00:13:18.790Z,16.85
2018-06-02T00:13:23.102Z,16.85
2018-06-02T00:13:27.422Z,16.85
2018-06-02T00:13:31.636Z,16.85
2018-06-02T00:13:35.949Z,16.85
2018-06-02T00:13:40.161Z,16.85
2018-06-02T00:13:44.370Z,16.84
2018-06-02T00:13:48.479Z,16.85
2018-06-02T00:13:52.480Z,16.85
2018-06-02T00:13:56.708Z,16.84
2018-06-02T00:14:00.920Z,16.84
2018-06-02T00:14:04.913Z,16.84
2018-06-02T00:14:08.904Z,16.84
2018-06-02T00:14:13.223Z,16.84
2018-06-02T00:14:17.545Z,16.84
2018-06-02T00:14:21.869Z,16.84
2018-06-02T00:14:25.979Z,16.84
2018-06-02T00:14:30.092Z,16.84
2018-06-02T00:14:34.192Z,16.84
2018-06-02T00:14:38.292Z,16.83
2018-06-02T00:14:42.286Z,16.83
2018-06-02T00:14:46.627Z,16.83
2018-06-02T00:14:50.842Z,16.83
2018-06-02T00:14:55.158Z,16.83
2018-06-02T00:14:59.371Z,16.83
2018-06-02T00:15:03.477Z,16.84
2018-06-02T00:15:07.474Z,16.84
2018-06-02T00:15:11.684Z,16.82
2018-06-02T00:15:15.682Z,16.83
2018-06-02T00:15:20.002Z,16.83
2018-06-02T00:15:24.215Z,16.83
2018-06-02T00:15:28.532Z,16.83
2018-06-02T00:15:32.653Z,16.82
2018-06-02T00:15:36.869Z,16.82
2018-06-02T00:15:41.199Z,16.82
2018-06-02T00:15:45.409Z,16.83
2018-06-02T00:15:49.523Z,16.83
2018-06-02T00:15:53.740Z,16.82
2018-06-02T00:15:57.949Z,16.82
2018-06-02T00:16:02.165Z,16.83
2018-06-02T00:16:06.160Z,16.82
2018-06-02T00:16:10.476Z,16.82
2018-06-02T00:16:14.589Z,16.82
2018-06-02T00:16:18.804Z,16.82
2018-06-02T00:16:23.023Z,16.82
2018-06-02T00:16:27.243Z,16.82
2018-06-02T00:16:31.456Z,16.81
2018-06-02T00:16:35.700Z,16.81
2018-06-02T00:16:39.921Z,16.82
2018-06-02T00:16:44.243Z,16.82
2018-06-02T00:16:48.450Z,16.82
2018-06-02T00:16:52.775Z,16.81
2018-06-02T00:16:56.995Z,16.81
2018-06-02T00:17:01.203Z,16.81
2018-06-02T00:17:05.626Z,16.8
2018-06-02T00:17:09.952Z,16.8
2018-06-02T00:17:14.273Z,16.81
2018-06-02T00:17:18.494Z,16.81
2018-06-02T00:17:22.810Z,16.8
2018-06-02T00:17:27.018Z,16.8
2018-06-02T00:17:31.234Z,16.8
2018-06-02T00:17:35.335Z,16.8
2018-06-02T00:17:39.546Z,16.8
2018-06-02T00:17:43.926Z,16.8
2018-06-02T00:17:48.245Z,16.8
2018-06-02T00:17:52.460Z,16.8
2018-06-02T00:17:56.784Z,16.8
2018-06-02T00:18:00.995Z,16.8
2018-06-02T00:18:05.310Z,16.8
2018-06-02T00:18:09.520Z,16.79
2018-06-02T00:18:13.631Z,16.8
2018-06-02T00:18:17.949Z,16.79
2018-06-02T00:18:22.158Z,16.8
2018-06-02T00:18:26.487Z,16.79
2018-06-02T00:18:30.700Z,16.8
2018-06-02T00:18:34.913Z,16.79
2018-06-02T00:18:39.255Z,16.79
2018-06-02T00:18:43.359Z,16.8
2018-06-02T00:18:47.587Z,16.79
2018-06-02T00:18:51.917Z,16.79
2018-06-02T00:18:56.242Z,16.79
2018-06-02T00:19:00.465Z,16.78
2018-06-02T00:19:04.694Z,16.78
2018-06-02T00:19:08.794Z,16.78
2018-06-02T00:19:13.005Z,16.79
2018-06-02T00:19:17.219Z,16.78
2018-06-02T00:19:21.541Z,16.78
2018-06-02T00:19:25.760Z,16.78
2018-06-02T00:19:29.864Z,16.78
2018-06-02T00:19:33.966Z,16.78
2018-06-02T00:19:37.961Z,16.78
2018-06-02T00:19:41.966Z,16.78
2018-06-02T00:19:46.286Z,16.78
2018-06-02T00:19:50.607Z,16.78
2018-06-02T00:19:54.824Z,16.77
2018-06-02T00:19:59.159Z,16.78
2018-06-02T00:20:03.275Z,16.77
2018-06-02T00:20:07.496Z,16.77
2018-06-02T00:20:11.828Z,16.77
2018-06-02T00:20:16.041Z,16.77
2018-06-02T00:20:20.141Z,16.77
2018-06-02T00:20:24.469Z,16.77
2018-06-02T00:20:28.679Z,16.76
2018-06-02T00:20:33.001Z,16.76
2018-06-02T00:20:37.337Z,16.76
2018-06-02T00:20:41.657Z,16.75
2018-06-02T00:20:45.867Z,16.76
2018-06-02T00:20:50.083Z,16.75
2018-06-02T00:20:54.407Z,16.76
2018-06-02T00:20:58.515Z,16.76
2018-06-02T00:21:02.612Z,16.75
2018-06-02T00:21:06.832Z,16.77
2018-06-02T00:21:10.830Z,16.75
2018-06-02T00:21:15.155Z,16.76
2018-06-02T00:21:19.372Z,16.76
2018-06-02T00:21:23.690Z,16.75
2018-06-02T00:21:27.903Z,16.75
2018-06-02T00:21:32.007Z,16.74
2018-06-02T00:21:36.227Z,16.75
2018-06-02T00:21:40.440Z,16.74
2018-06-02T00:21:44.652Z,16.75
2018-06-02T00:21:48.867Z,16.74
2018-06-02T00:21:53.191Z,16.75
2018-06-02T00:21:57.510Z,16.74
2018-06-02T00:22:01.612Z,16.74
2018-06-02T00:22:05.821Z,16.74
2018-06-02T00:22:10.037Z,16.74
2018-06-02T00:22:14.143Z,16.74
2018-06-02T00:22:18.462Z,16.73
2018-06-02T00:22:22.787Z,16.73
2018-06-02T00:22:26.777Z,16.73
2018-06-02T00:22:30.897Z,16.73
2018-06-02T00:22:35.216Z,16.73
2018-06-02T00:22:39.531Z,16.72
2018-06-02T00:22:43.744Z,16.72
2018-06-02T00:22:47.955Z,16.73
2018-06-02T00:22:52.274Z,16.72
2018-06-02T00:22:56.493Z,16.72
2018-06-02T00:23:00.497Z,16.72
2018-06-02T00:23:04.826Z,16.71
2018-06-02T00:23:09.154Z,16.72
2018-06-02T00:23:13.477Z,16.71
2018-06-02T00:23:17.365Z,16.72
2018-06-02T00:23:21.573Z,16.71
2018-06-02T00:23:25.893Z,16.71
2018-06-02T00:23:30.107Z,16.7
2018-06-02T00:23:34.315Z,16.71
2018-06-02T00:23:38.531Z,16.71
2018-06-02T00:23:42.738Z,16.72
2018-06-02T00:23:47.054Z,16.71
2018-06-02T00:23:51.265Z,16.71
2018-06-02T00:23:55.373Z,16.71
2018-06-02T00:23:59.736Z,16.71
2018-06-02T00:24:03.883Z,16.71
2018-06-02T00:24:07.776Z,16.71
2018-06-02T00:24:11.989Z,16.71
2018-06-02T00:24:16.197Z,16.71
2018-06-02T00:24:20.407Z,16.7
2018-06-02T00:24:24.724Z,16.71
2018-06-02T00:24:29.084Z,16.7
2018-06-02T00:24:33.422Z,16.7
2018-06-02T00:24:37.747Z,16.71
2018-06-02T00:24:42.070Z,16.7
2018-06-02T00:24:46.063Z,16.71
2018-06-02T00:24:50.277Z,16.7
2018-06-02T00:24:54.490Z,16.7
2018-06-02T00:24:58.699Z,16.71
2018-06-02T00:25:03.018Z,16.7
2018-06-02T00:25:07.121Z,16.7
2018-06-02T00:25:11.223Z,16.7
2018-06-02T00:25:15.558Z,16.69
2018-06-02T00:25:19.762Z,16.7
2018-06-02T00:25:23.886Z,16.69
2018-06-02T00:25:28.099Z,16.69
2018-06-02T00:25:32.424Z,16.69
2018-06-02T00:25:36.638Z,16.69
2018-06-02T00:25:40.744Z,16.7
2018-06-02T00:25:44.853Z,16.69
2018-06-02T00:25:49.172Z,16.68
2018-06-02T00:25:53.271Z,16.69
2018-06-02T00:25:57.380Z,16.68
2018-06-02T00:26:01.481Z,16.68
2018-06-02T00:26:05.639Z,16.68
2018-06-02T00:26:09.857Z,16.69
2018-06-02T00:26:13.960Z,16.68
2018-06-02T00:26:18.060Z,16.68
2018-06-02T00:26:22.403Z,16.68
2018-06-02T00:26:26.620Z,16.68
2018-06-02T00:26:30.722Z,16.68
2018-06-02T00:26:34.935Z,16.68
2018-06-02T00:26:39.257Z,16.68
2018-06-02T00:26:43.261Z,16.68
2018-06-02T00:26:47.583Z,16.67
2018-06-02T00:26:51.906Z,16.68
2018-06-02T00:26:56.225Z,16.68
2018-06-02T00:27:00.449Z,16.68
2018-06-02T00:27:04.667Z,16.67
2018-06-02T00:27:08.766Z,16.67
2018-06-02T00:27:13.092Z,16.67
2018-06-02T00:27:17.425Z,16.67
2018-06-02T00:27:21.749Z,16.67
2018-06-02T00:27:25.968Z,16.67
2018-06-02T00:27:30.174Z,16.68
2018-06-02T00:27:34.279Z,16.66
2018-06-02T00:27:38.495Z,16.67
2018-06-02T00:27:42.708Z,16.67
2018-06-02T00:27:46.807Z,16.67
2018-06-02T00:27:50.912Z,16.67
2018-06-02T00:27:55.231Z,16.67
2018-06-02T00:27:59.329Z,16.66
2018-06-02T00:28:03.549Z,16.66
2018-06-02T00:28:07.764Z,16.66
2018-06-02T00:28:11.987Z,16.66
2018-06-02T00:28:16.197Z,16.67
2018-06-02T00:28:20.190Z,16.66
2018-06-02T00:28:24.397Z,16.66
2018-06-02T00:28:28.500Z,16.66
2018-06-02T00:28:32.603Z,16.67
2018-06-02T00:28:36.815Z,16.66
2018-06-02T00:28:40.814Z,16.66
2018-06-02T00:28:45.024Z,16.66
2018-06-02T00:28:49.352Z,16.66
2018-06-02T00:28:53.666Z,16.66
2018-06-02T00:28:57.877Z,16.65
2018-06-02T00:29:02.245Z,16.66
2018-06-02T00:29:06.458Z,16.66
2018-06-02T00:29:10.775Z,16.66
2018-06-02T00:29:14.887Z,16.65
2018-06-02T00:29:19.205Z,16.65
2018-06-02T00:29:23.570Z,16.65
2018-06-02T00:29:27.867Z,16.65
2018-06-02T00:29:32.191Z,16.65
2018-06-02T00:29:36.399Z,16.66
2018-06-02T00:29:40.611Z,16.66
2018-06-02T00:29:44.827Z,16.65
2018-06-02T00:29:49.167Z,16.66
2018-06-02T00:29:53.267Z,16.65
2018-06-02T00:29:57.586Z,16.65
2018-06-02T00:30:01.800Z,16.66
2018-06-02T00:30:05.581Z,16.66
2018-06-02T00:30:09.795Z,16.65
2018-06-02T00:30:14.020Z,16.65
2018-06-02T00:30:17.910Z,16.65
2018-06-02T00:30:22.119Z,16.65
2018-06-02T00:30:26.334Z,16.66
2018-06-02T00:30:30.560Z,16.65
2018-06-02T00:30:34.876Z,16.64
2018-06-02T00:30:39.100Z,16.65
2018-06-02T00:30:43.313Z,16.64
2018-06-02T00:30:47.421Z,16.66
2018-06-02T00:30:51.735Z,16.64
2018-06-02T00:30:55.953Z,16.64
2018-06-02T00:31:00.161Z,16.65
2018-06-02T00:31:03.941Z,16.65
2018-06-02T00:31:08.163Z,16.65
2018-06-02T00:31:12.155Z,16.64
2018-06-02T00:31:16.476Z,16.64
2018-06-02T00:31:20.472Z,16.64
2018-06-02T00:31:24.787Z,16.64
2018-06-02T00:31:28.799Z,16.64
2018-06-02T00:31:33.164Z,16.63
2018-06-02T00:31:37.148Z,16.63
2018-06-02T00:31:41.245Z,16.64
2018-06-02T00:31:45.458Z,16.63
2018-06-02T00:31:49.662Z,16.63
2018-06-02T00:31:53.867Z,16.63
2018-06-02T00:31:58.186Z,16.64
2018-06-02T00:32:02.336Z,16.63
2018-06-02T00:32:06.553Z,16.63
2018-06-02T00:32:10.766Z,16.63
2018-06-02T00:32:15.094Z,16.62
2018-06-02T00:32:19.416Z,16.63
2018-06-02T00:32:23.735Z,16.62
2018-06-02T00:32:27.844Z,16.63
2018-06-02T00:32:32.165Z,16.62
2018-06-02T00:32:36.386Z,16.62
2018-06-02T00:32:40.489Z,16.62
2018-06-02T00:32:44.373Z,16.62
2018-06-02T00:32:48.588Z,16.61
2018-06-02T00:32:52.799Z,16.62
2018-06-02T00:32:56.798Z,16.61
2018-06-02T00:33:01.031Z,16.61
2018-06-02T00:33:05.236Z,16.61
2018-06-02T00:33:09.448Z,16.61
2018-06-02T00:33:13.766Z,16.61
2018-06-02T00:33:18.093Z,16.61
2018-06-02T00:33:22.197Z,16.61
2018-06-02T00:33:26.300Z,16.61
2018-06-02T00:33:30.616Z,16.61
2018-06-02T00:33:34.835Z,16.61
2018-06-02T00:33:39.161Z,16.61
2018-06-02T00:33:43.375Z,16.61
2018-06-02T00:33:47.688Z,16.61
2018-06-02T00:33:52.026Z,16.6
2018-06-02T00:33:56.352Z,16.6
2018-06-02T00:34:00.681Z,16.59
2018-06-02T00:34:04.827Z,16.59
2018-06-02T00:34:08.936Z,16.6
2018-06-02T00:34:13.303Z,16.59
2018-06-02T00:34:17.516Z,16.6
2018-06-02T00:34:21.838Z,16.59
2018-06-02T00:34:26.166Z,16.59
2018-06-02T00:34:30.270Z,16.59
2018-06-02T00:34:34.376Z,16.6
2018-06-02T00:34:38.697Z,16.59
2018-06-02T00:34:42.951Z,16.57
2018-06-02T00:34:47.275Z,16.58
2018-06-02T00:34:51.592Z,16.57
2018-06-02T00:34:55.806Z,16.57
2018-06-02T00:35:00.125Z,16.57
2018-06-02T00:35:04.191Z,16.56
2018-06-02T00:35:08.404Z,16.56
2018-06-02T00:35:12.612Z,16.56
2018-06-02T00:35:16.827Z,16.57
2018-06-02T00:35:21.150Z,16.56
2018-06-02T00:35:25.366Z,16.57
2018-06-02T00:35:29.474Z,16.57
2018-06-02T00:35:33.687Z,16.56
2018-06-02T00:35:38.049Z,16.57
2018-06-02T00:35:42.262Z,16.56
2018-06-02T00:35:46.480Z,16.56
2018-06-02T00:35:50.797Z,16.56
2018-06-02T00:35:55.008Z,16.55
2018-06-02T00:35:59.009Z,16.55
2018-06-02T00:36:03.318Z,16.55
2018-06-02T00:36:07.099Z,16.54
2018-06-02T00:36:11.312Z,16.55
2018-06-02T00:36:15.643Z,16.54
2018-06-02T00:36:19.853Z,16.54
2018-06-02T00:36:24.062Z,16.54
2018-06-02T00:36:28.272Z,16.53
2018-06-02T00:36:32.376Z,16.53
2018-06-02T00:36:36.699Z,16.53
2018-06-02T00:36:40.913Z,16.53
2018-06-02T00:36:45.132Z,16.53
2018-06-02T00:36:49.351Z,16.52
2018-06-02T00:36:53.585Z,16.52
2018-06-02T00:36:57.797Z,16.53
2018-06-02T00:37:01.949Z,16.52
2018-06-02T00:37:05.841Z,16.52
2018-06-02T00:37:09.944Z,16.52
2018-06-02T00:37:14.151Z,16.52
2018-06-02T00:37:18.367Z,16.51
2018-06-02T00:37:22.580Z,16.52
2018-06-02T00:37:26.797Z,16.51
2018-06-02T00:37:31.005Z,16.51
2018-06-02T00:37:35.119Z,16.5
2018-06-02T00:37:39.436Z,16.5
2018-06-02T00:37:43.645Z,16.51
2018-06-02T00:37:47.860Z,16.5
2018-06-02T00:37:52.076Z,16.5
2018-06-02T00:37:56.306Z,16.5
2018-06-02T00:38:00.626Z,16.5
2018-06-02T00:38:04.894Z,16.5
2018-06-02T00:38:09.111Z,16.5
2018-06-02T00:38:13.427Z,16.5
2018-06-02T00:38:17.424Z,16.5
2018-06-02T00:38:21.632Z,16.49
2018-06-02T00:38:25.955Z,16.49
2018-06-02T00:38:30.163Z,16.49
2018-06-02T00:38:34.157Z,16.49
2018-06-02T00:38:38.374Z,16.48
2018-06-02T00:38:42.593Z,16.48
2018-06-02T00:38:46.811Z,16.48
2018-06-02T00:38:50.915Z,16.49
2018-06-02T00:38:55.024Z,16.49
2018-06-02T00:38:59.259Z,16.48
2018-06-02T00:39:03.592Z,16.48
2018-06-02T00:39:07.815Z,16.48
2018-06-02T00:39:12.039Z,16.48
2018-06-02T00:39:16.356Z,16.46
2018-06-02T00:39:20.569Z,16.47
2018-06-02T00:39:24.892Z,16.47
2018-06-02T00:39:29.102Z,16.47
2018-06-02T00:39:33.312Z,16.47
2018-06-02T00:39:37.527Z,16.46
2018-06-02T00:39:41.737Z,16.47
2018-06-02T00:39:45.956Z,16.47
2018-06-02T00:39:50.294Z,16.46
2018-06-02T00:39:54.626Z,16.46
2018-06-02T00:39:58.839Z,16.45
2018-06-02T00:40:03.099Z,16.46
2018-06-02T00:40:06.878Z,16.47
2018-06-02T00:40:10.984Z,16.45
2018-06-02T00:40:15.305Z,16.46
2018-06-02T00:40:19.409Z,16.46
2018-06-02T00:40:23.513Z,16.45
2018-06-02T00:40:27.720Z,16.46
2018-06-02T00:40:31.822Z,16.45
2018-06-02T00:40:36.141Z,16.45
2018-06-02T00:40:40.247Z,16.45
2018-06-02T00:40:44.465Z,16.45
2018-06-02T00:40:48.567Z,16.45
2018-06-02T00:40:52.897Z,16.45
2018-06-02T00:40:57.003Z,16.45
2018-06-02T00:41:01.106Z,16.44
2018-06-02T00:41:05.103Z,16.45
2018-06-02T00:41:09.329Z,16.44
2018-06-02T00:41:13.441Z,16.45
2018-06-02T00:41:17.654Z,16.45
2018-06-02T00:41:21.967Z,16.44
2018-06-02T00:41:26.281Z,16.45
2018-06-02T00:41:30.609Z,16.44
2018-06-02T00:41:34.716Z,16.44
2018-06-02T00:41:38.714Z,16.44
2018-06-02T00:41:43.042Z,16.44
2018-06-02T00:41:47.151Z,16.44
2018-06-02T00:41:51.390Z,16.43
2018-06-02T00:41:55.600Z,16.43
2018-06-02T00:41:59.925Z,16.43
2018-06-02T00:42:03.971Z,16.43
2018-06-02T00:42:08.184Z,16.43
2018-06-02T00:42:12.500Z,16.43
2018-06-02T00:42:16.605Z,16.43
2018-06-02T00:42:20.813Z,16.43
2018-06-02T00:42:25.029Z,16.43
2018-06-02T00:42:29.243Z,16.43
2018-06-02T00:42:33.345Z,16.43
2018-06-02T00:42:37.564Z,16.43
2018-06-02T00:42:41.776Z,16.43
2018-06-02T00:42:46.099Z,16.43
2018-06-02T00:42:50.419Z,16.43
2018-06-02T00:42:54.631Z,16.43
2018-06-02T00:42:58.846Z,16.43
2018-06-02T00:43:02.841Z,16.43
2018-06-02T00:43:07.058Z,16.42
2018-06-02T00:43:11.172Z,16.43
2018-06-02T00:43:15.493Z,16.43
2018-06-02T00:43:19.717Z,16.42
2018-06-02T00:43:24.045Z,16.42
2018-06-02T00:43:28.265Z,16.42
2018-06-02T00:43:32.596Z,16.43
2018-06-02T00:43:36.801Z,16.43
2018-06-02T00:43:40.903Z,16.42
2018-06-02T00:43:45.007Z,16.42
2018-06-02T00:43:49.112Z,16.42
2018-06-02T00:43:53.318Z,16.42
2018-06-02T00:43:57.539Z,16.42
2018-06-02T00:44:01.755Z,16.41
2018-06-02T00:44:05.973Z,16.42
2018-06-02T00:44:10.082Z,16.42
2018-06-02T00:44:14.400Z,16.42
2018-06-02T00:44:18.609Z,16.42
2018-06-02T00:44:22.823Z,16.41
2018-06-02T00:44:26.842Z,16.41
2018-06-02T00:44:31.054Z,16.42
2018-06-02T00:44:35.160Z,16.42
2018-06-02T00:44:39.374Z,16.42
2018-06-02T00:44:43.589Z,16.42
2018-06-02T00:44:47.909Z,16.41
2018-06-02T00:44:52.127Z,16.41
2018-06-02T00:44:56.344Z,16.42
2018-06-02T00:45:00.447Z,16.41
2018-06-02T00:45:04.226Z,16.41
2018-06-02T00:45:08.440Z,16.41
2018-06-02T00:45:12.767Z,16.4
2018-06-02T00:45:16.978Z,16.4
2018-06-02T00:45:21.186Z,16.4
2018-06-02T00:45:25.507Z,16.39
2018-06-02T00:45:29.837Z,16.39
2018-06-02T00:45:34.163Z,16.4
2018-06-02T00:45:38.381Z,16.4
2018-06-02T00:45:42.587Z,16.39
2018-06-02T00:45:46.906Z,16.4
2018-06-02T00:45:51.226Z,16.4
2018-06-02T00:45:55.464Z,16.4
2018-06-02T00:45:59.787Z,16.39
2018-06-02T00:46:04.013Z,16.4
2018-06-02T00:46:08.337Z,16.4
2018-06-02T00:46:12.553Z,16.39
2018-06-02T00:46:16.761Z,16.39
2018-06-02T00:46:20.975Z,16.38
2018-06-02T00:46:25.190Z,16.38
2018-06-02T00:46:29.503Z,16.38
2018-06-02T00:46:33.733Z,16.39
2018-06-02T00:46:37.838Z,16.39
2018-06-02T00:46:42.154Z,16.38
2018-06-02T00:46:46.265Z,16.37
2018-06-02T00:46:50.587Z,16.38
2018-06-02T00:46:54.804Z,16.37
2018-06-02T00:46:59.022Z,16.37
2018-06-02T00:47:03.016Z,16.38
2018-06-02T00:47:07.119Z,16.37
2018-06-02T00:47:11.325Z,16.37
2018-06-02T00:47:15.537Z,16.37
2018-06-02T00:47:19.866Z,16.37
2018-06-02T00:47:23.861Z,16.37
2018-06-02T00:47:28.114Z,16.37
2018-06-02T00:47:32.326Z,16.37
2018-06-02T00:47:36.646Z,16.37
2018-06-02T00:47:40.973Z,16.36
2018-06-02T00:47:45.186Z,16.35
2018-06-02T00:47:49.401Z,16.35
2018-06-02T00:47:53.717Z,16.36
2018-06-02T00:47:57.932Z,16.36
2018-06-02T00:48:02.131Z,16.36
2018-06-02T00:48:06.272Z,16.35
2018-06-02T00:48:10.506Z,16.36
2018-06-02T00:48:14.610Z,16.36
2018-06-02T00:48:18.818Z,16.36
2018-06-02T00:48:23.031Z,16.35
2018-06-02T00:48:27.347Z,16.35
2018-06-02T00:48:31.561Z,16.35
2018-06-02T00:48:35.666Z,16.35
2018-06-02T00:48:39.774Z,16.34
2018-06-02T00:48:43.875Z,16.35
2018-06-02T00:48:48.084Z,16.35
2018-06-02T00:48:52.401Z,16.34
2018-06-02T00:48:56.612Z,16.34
2018-06-02T00:49:00.937Z,16.34
2018-06-02T00:49:04.942Z,16.34
2018-06-02T00:49:09.157Z,16.35
2018-06-02T00:49:13.471Z,16.34
2018-06-02T00:49:17.578Z,16.34
2018-06-02T00:49:21.893Z,16.34
2018-06-02T00:49:25.893Z,16.33
2018-06-02T00:49:30.008Z,16.34
2018-06-02T00:49:34.327Z,16.34
2018-06-02T00:49:38.729Z,16.33
2018-06-02T00:49:43.114Z,16.34
2018-06-02T00:49:47.435Z,16.34
2018-06-02T00:49:51.660Z,16.33
2018-06-02T00:49:55.885Z,16.34
2018-06-02T00:50:00.197Z,16.33
2018-06-02T00:50:04.420Z,16.32
2018-06-02T00:50:08.628Z,16.32
2018-06-02T00:50:12.732Z,16.33
2018-06-02T00:50:16.945Z,16.33
2018-06-02T00:50:21.264Z,16.32
2018-06-02T00:50:25.473Z,16.31
2018-06-02T00:50:29.787Z,16.32
2018-06-02T00:50:34.012Z,16.32
2018-06-02T00:50:38.116Z,16.32
2018-06-02T00:50:42.322Z,16.31
2018-06-02T00:50:46.550Z,16.31
2018-06-02T00:50:50.653Z,16.31
2018-06-02T00:50:54.865Z,16.31
2018-06-02T00:50:58.967Z,16.32
2018-06-02T00:51:03.379Z,16.31
2018-06-02T00:51:07.602Z,16.31
2018-06-02T00:51:11.714Z,16.31
2018-06-02T00:51:15.927Z,16.31
2018-06-02T00:51:20.245Z,16.31
2018-06-02T00:51:24.456Z,16.3
2018-06-02T00:51:28.556Z,16.3
2018-06-02T00:51:32.765Z,16.31
2018-06-02T00:51:36.970Z,16.3
2018-06-02T00:51:41.286Z,16.3
2018-06-02T00:51:45.281Z,16.29
2018-06-02T00:51:49.506Z,16.3
2018-06-02T00:51:53.823Z,16.29
2018-06-02T00:51:58.044Z,16.29
2018-06-02T00:52:02.262Z,16.29
2018-06-02T00:52:06.267Z,16.29
2018-06-02T00:52:10.473Z,16.29
2018-06-02T00:52:14.576Z,16.29
2018-06-02T00:52:18.782Z,16.29
2018-06-02T00:52:22.883Z,16.29
2018-06-02T00:52:27.097Z,16.29
2018-06-02T00:52:31.197Z,16.29
2018-06-02T00:52:35.414Z,16.29
2018-06-02T00:52:39.626Z,16.29
2018-06-02T00:52:43.733Z,16.28
2018-06-02T00:52:47.983Z,16.29
2018-06-02T00:52:52.307Z,16.28
2018-06-02T00:52:56.522Z,16.28
2018-06-02T00:53:00.732Z,16.29
2018-06-02T00:53:04.941Z,16.28
2018-06-02T00:53:09.270Z,16.27
2018-06-02T00:53:13.485Z,16.28
2018-06-02T00:53:17.811Z,16.28
2018-06-02T00:53:21.697Z,16.28
2018-06-02T00:53:25.905Z,16.28
2018-06-02T00:53:30.234Z,16.28
2018-06-02T00:53:34.441Z,16.28
2018-06-02T00:53:38.543Z,16.28
2018-06-02T00:53:42.648Z,16.27
2018-06-02T00:53:46.964Z,16.28
2018-06-02T00:53:51.065Z,16.27
2018-06-02T00:53:55.389Z,16.28
2018-06-02T00:53:59.710Z,16.26
2018-06-02T00:54:03.920Z,16.28
2018-06-02T00:54:08.235Z,16.27
2018-06-02T00:54:12.121Z,16.28
2018-06-02T00:54:16.351Z,16.28
2018-06-02T00:54:20.470Z,16.27
2018-06-02T00:54:24.578Z,16.27
2018-06-02T00:54:28.684Z,16.27